TAF and METAR

METAR for Snorre A Oil Platform

ENSE 292150Z AUTO 15014KT 9999NDV NCD 10/07 Q1030 W///S3
Report created 29. mai 23:50
report generated by an automatic observation system. wind 14 knots from SSE (150°) visibility > 10km No cloud detected. Temperature 10° with dewpoint at 7° (Humidity 81.61%) Pressure 1030 hPa
No TAF available for Snorre A Oil Platform